sensor_id;sensor_type;location;lat;lon;timestamp;P1;durP1;ratioP1;P2;durP2;ratioP2
55601;SDS011;59921;51.332;12.410;2022-12-18T00:01:41;17.50;;;14.55;;
55601;SDS011;59921;51.332;12.410;2022-12-18T00:04:11;17.63;;;14.48;;
55601;SDS011;59921;51.332;12.410;2022-12-18T00:06:43;17.95;;;15.55;;
55601;SDS011;59921;51.332;12.410;2022-12-18T00:09:09;17.83;;;15.63;;
55601;SDS011;59921;51.332;12.410;2022-12-18T00:11:35;17.65;;;15.43;;
55601;SDS011;59921;51.332;12.410;2022-12-18T00:14:00;17.55;;;15.50;;
55601;SDS011;59921;51.332;12.410;2022-12-18T00:16:26;18.08;;;14.95;;
55601;SDS011;59921;51.332;12.410;2022-12-18T00:18:53;17.15;;;15.20;;
55601;SDS011;59921;51.332;12.410;2022-12-18T00:21:24;17.70;;;15.38;;
55601;SDS011;59921;51.332;12.410;2022-12-18T00:23:50;17.90;;;15.40;;
55601;SDS011;59921;51.332;12.410;2022-12-18T00:26:18;17.33;;;15.38;;
55601;SDS011;59921;51.332;12.410;2022-12-18T00:28:47;17.77;;;15.77;;
55601;SDS011;59921;51.332;12.410;2022-12-18T00:31:15;17.38;;;15.45;;
55601;SDS011;59921;51.332;12.410;2022-12-18T00:33:43;17.10;;;15.20;;
55601;SDS011;59921;51.332;12.410;2022-12-18T00:39:04;16.17;;;14.40;;
55601;SDS011;59921;51.332;12.410;2022-12-18T00:41:30;16.88;;;15.07;;
55601;SDS011;59921;51.332;12.410;2022-12-18T00:44:15;16.95;;;15.15;;
55601;SDS011;59921;51.332;12.410;2022-12-18T00:46:42;16.92;;;15.10;;
55601;SDS011;59921;51.332;12.410;2022-12-18T00:49:09;18.02;;;15.10;;
55601;SDS011;59921;51.332;12.410;2022-12-18T00:51:34;18.50;;;15.90;;
55601;SDS011;59921;51.332;12.410;2022-12-18T00:54:00;17.65;;;15.60;;
55601;SDS011;59921;51.332;12.410;2022-12-18T00:56:25;17.80;;;15.20;;
55601;SDS011;59921;51.332;12.410;2022-12-18T00:58:51;18.00;;;15.85;;
55601;SDS011;59921;51.332;12.410;2022-12-18T01:01:17;16.48;;;14.63;;
55601;SDS011;59921;51.332;12.410;2022-12-18T01:03:42;16.38;;;14.52;;
55601;SDS011;59921;51.332;12.410;2022-12-18T01:06:11;18.23;;;15.85;;
55601;SDS011;59921;51.332;12.410;2022-12-18T01:08:38;18.98;;;15.52;;
55601;SDS011;59921;51.332;12.410;2022-12-18T01:11:14;18.23;;;15.55;;
55601;SDS011;59921;51.332;12.410;2022-12-18T01:13:41;18.02;;;15.25;;
55601;SDS011;59921;51.332;12.410;2022-12-18T01:16:08;17.85;;;15.25;;
55601;SDS011;59921;51.332;12.410;2022-12-18T01:18:35;17.98;;;15.70;;
55601;SDS011;59921;51.332;12.410;2022-12-18T01:21:05;17.35;;;14.73;;
55601;SDS011;59921;51.332;12.410;2022-12-18T01:23:31;16.98;;;14.85;;
55601;SDS011;59921;51.332;12.410;2022-12-18T01:25:56;16.77;;;14.88;;
55601;SDS011;59921;51.332;12.410;2022-12-18T01:28:23;17.02;;;15.18;;
55601;SDS011;59921;51.332;12.410;2022-12-18T01:30:48;16.73;;;14.77;;
55601;SDS011;59921;51.332;12.410;2022-12-18T01:33:14;16.48;;;14.65;;
55601;SDS011;59921;51.332;12.410;2022-12-18T01:35:40;16.40;;;14.57;;
55601;SDS011;59921;51.332;12.410;2022-12-18T01:38:08;16.95;;;15.13;;
55601;SDS011;59921;51.332;12.410;2022-12-18T01:40:34;17.48;;;14.70;;
55601;SDS011;59921;51.332;12.410;2022-12-18T01:43:00;17.20;;;15.00;;
55601;SDS011;59921;51.332;12.410;2022-12-18T01:45:29;18.48;;;15.77;;
55601;SDS011;59921;51.332;12.410;2022-12-18T01:48:00;17.38;;;15.15;;
55601;SDS011;59921;51.332;12.410;2022-12-18T01:50:38;17.60;;;15.20;;
55601;SDS011;59921;51.332;12.410;2022-12-18T01:53:15;16.42;;;14.55;;
55601;SDS011;59921;51.332;12.410;2022-12-18T01:55:48;17.40;;;15.00;;
55601;SDS011;59921;51.332;12.410;2022-12-18T01:58:19;17.77;;;15.20;;
55601;SDS011;59921;51.332;12.410;2022-12-18T02:00:53;17.27;;;14.90;;
55601;SDS011;59921;51.332;12.410;2022-12-18T02:03:20;17.02;;;15.20;;
55601;SDS011;59921;51.332;12.410;2022-12-18T02:22:25;16.30;;;13.82;;
55601;SDS011;59921;51.332;12.410;2022-12-18T02:27:22;15.93;;;13.80;;
55601;SDS011;59921;51.332;12.410;2022-12-18T02:29:51;16.13;;;14.38;;
55601;SDS011;59921;51.332;12.410;2022-12-18T02:32:28;17.67;;;14.02;;
55601;SDS011;59921;51.332;12.410;2022-12-18T02:35:06;17.80;;;14.88;;
55601;SDS011;59921;51.332;12.410;2022-12-18T02:37:35;16.13;;;14.38;;
55601;SDS011;59921;51.332;12.410;2022-12-18T02:40:04;16.73;;;14.52;;
55601;SDS011;59921;51.332;12.410;2022-12-18T02:42:30;16.27;;;14.27;;
55601;SDS011;59921;51.332;12.410;2022-12-18T02:44:57;16.83;;;14.18;;
55601;SDS011;59921;51.332;12.410;2022-12-18T02:47:24;17.27;;;14.40;;
55601;SDS011;59921;51.332;12.410;2022-12-18T02:58:13;16.50;;;14.50;;
55601;SDS011;59921;51.332;12.410;2022-12-18T03:00:45;16.52;;;14.35;;
55601;SDS011;59921;51.332;12.410;2022-12-18T03:03:35;16.35;;;13.82;;
55601;SDS011;59921;51.332;12.410;2022-12-18T03:06:08;15.82;;;14.05;;
55601;SDS011;59921;51.332;12.410;2022-12-18T03:08:57;16.40;;;13.80;;
55601;SDS011;59921;51.332;12.410;2022-12-18T03:11:26;15.57;;;13.20;;
55601;SDS011;59921;51.332;12.410;2022-12-18T03:14:18;16.25;;;13.75;;
55601;SDS011;59921;51.332;12.410;2022-12-18T03:16:47;16.42;;;14.07;;
55601;SDS011;59921;51.332;12.410;2022-12-18T03:19:18;16.00;;;14.30;;
55601;SDS011;59921;51.332;12.410;2022-12-18T03:21:49;15.20;;;13.38;;
55601;SDS011;59921;51.332;12.410;2022-12-18T03:24:17;16.23;;;14.25;;
55601;SDS011;59921;51.332;12.410;2022-12-18T03:26:45;15.60;;;13.25;;
55601;SDS011;59921;51.332;12.410;2022-12-18T03:32:00;16.23;;;13.75;;
55601;SDS011;59921;51.332;12.410;2022-12-18T03:34:31;16.33;;;13.80;;
55601;SDS011;59921;51.332;12.410;2022-12-18T03:36:58;14.93;;;12.52;;
55601;SDS011;59921;51.332;12.410;2022-12-18T03:39:24;15.95;;;13.73;;
55601;SDS011;59921;51.332;12.410;2022-12-18T03:44:41;15.75;;;13.35;;
55601;SDS011;59921;51.332;12.410;2022-12-18T03:50:02;16.83;;;13.77;;
55601;SDS011;59921;51.332;12.410;2022-12-18T03:53:09;15.07;;;12.65;;
55601;SDS011;59921;51.332;12.410;2022-12-18T03:55:40;15.88;;;13.18;;
55601;SDS011;59921;51.332;12.410;2022-12-18T03:58:08;16.05;;;13.30;;
55601;SDS011;59921;51.332;12.410;2022-12-18T04:00:36;16.67;;;14.00;;
55601;SDS011;59921;51.332;12.410;2022-12-18T04:03:02;15.40;;;13.13;;
55601;SDS011;59921;51.332;12.410;2022-12-18T04:05:29;17.15;;;13.55;;
55601;SDS011;59921;51.332;12.410;2022-12-18T04:07:57;15.70;;;13.20;;
55601;SDS011;59921;51.332;12.410;2022-12-18T04:10:23;15.52;;;13.02;;
55601;SDS011;59921;51.332;12.410;2022-12-18T04:12:48;14.57;;;12.50;;
55601;SDS011;59921;51.332;12.410;2022-12-18T04:15:14;14.30;;;12.60;;
55601;SDS011;59921;51.332;12.410;2022-12-18T04:17:48;13.98;;;11.82;;
55601;SDS011;59921;51.332;12.410;2022-12-18T04:20:14;15.02;;;12.50;;
55601;SDS011;59921;51.332;12.410;2022-12-18T04:22:40;15.00;;;12.63;;
55601;SDS011;59921;51.332;12.410;2022-12-18T04:25:06;15.23;;;12.65;;
55601;SDS011;59921;51.332;12.410;2022-12-18T04:27:32;15.15;;;12.43;;
55601;SDS011;59921;51.332;12.410;2022-12-18T04:29:58;13.60;;;11.90;;
55601;SDS011;59921;51.332;12.410;2022-12-18T04:32:23;14.52;;;12.45;;
55601;SDS011;59921;51.332;12.410;2022-12-18T04:34:49;14.35;;;11.77;;
55601;SDS011;59921;51.332;12.410;2022-12-18T04:37:14;14.75;;;12.43;;
55601;SDS011;59921;51.332;12.410;2022-12-18T04:39:40;14.75;;;12.25;;
55601;SDS011;59921;51.332;12.410;2022-12-18T04:42:05;14.20;;;12.23;;
55601;SDS011;59921;51.332;12.410;2022-12-18T04:44:30;14.07;;;11.98;;
55601;SDS011;59921;51.332;12.410;2022-12-18T04:46:56;12.93;;;11.50;;
55601;SDS011;59921;51.332;12.410;2022-12-18T04:49:21;14.02;;;11.60;;
55601;SDS011;59921;51.332;12.410;2022-12-18T04:51:47;13.60;;;11.73;;
55601;SDS011;59921;51.332;12.410;2022-12-18T04:54:12;13.38;;;11.30;;
55601;SDS011;59921;51.332;12.410;2022-12-18T04:56:38;14.20;;;11.60;;
55601;SDS011;59921;51.332;12.410;2022-12-18T04:59:04;13.75;;;11.68;;
55601;SDS011;59921;51.332;12.410;2022-12-18T05:01:30;14.60;;;12.15;;
55601;SDS011;59921;51.332;12.410;2022-12-18T05:03:55;14.77;;;11.88;;
55601;SDS011;59921;51.332;12.410;2022-12-18T05:06:21;12.88;;;11.15;;
55601;SDS011;59921;51.332;12.410;2022-12-18T05:08:46;14.07;;;11.57;;
55601;SDS011;59921;51.332;12.410;2022-12-18T05:11:12;13.93;;;11.27;;
55601;SDS011;59921;51.332;12.410;2022-12-18T05:13:41;14.57;;;12.02;;
55601;SDS011;59921;51.332;12.410;2022-12-18T05:16:08;13.65;;;11.38;;
55601;SDS011;59921;51.332;12.410;2022-12-18T05:18:33;14.27;;;11.75;;
55601;SDS011;59921;51.332;12.410;2022-12-18T05:20:59;13.18;;;10.68;;
55601;SDS011;59921;51.332;12.410;2022-12-18T05:23:25;12.77;;;11.18;;
55601;SDS011;59921;51.332;12.410;2022-12-18T05:25:51;13.30;;;11.07;;
55601;SDS011;59921;51.332;12.410;2022-12-18T05:28:21;12.88;;;10.50;;
55601;SDS011;59921;51.332;12.410;2022-12-18T05:30:52;13.40;;;11.10;;
55601;SDS011;59921;51.332;12.410;2022-12-18T05:33:19;13.60;;;10.88;;
55601;SDS011;59921;51.332;12.410;2022-12-18T05:35:49;13.63;;;10.85;;
55601;SDS011;59921;51.332;12.410;2022-12-18T05:38:16;12.95;;;10.50;;
55601;SDS011;59921;51.332;12.410;2022-12-18T05:40:42;12.90;;;10.85;;
55601;SDS011;59921;51.332;12.410;2022-12-18T05:43:08;13.68;;;10.63;;
55601;SDS011;59921;51.332;12.410;2022-12-18T05:45:36;12.20;;;10.15;;
55601;SDS011;59921;51.332;12.410;2022-12-18T05:48:03;12.40;;;10.68;;
55601;SDS011;59921;51.332;12.410;2022-12-18T05:50:29;12.43;;;10.10;;
55601;SDS011;59921;51.332;12.410;2022-12-18T05:52:54;12.50;;;10.05;;
55601;SDS011;59921;51.332;12.410;2022-12-18T05:55:20;12.32;;;10.32;;
55601;SDS011;59921;51.332;12.410;2022-12-18T05:57:46;11.48;;;9.65;;
55601;SDS011;59921;51.332;12.410;2022-12-18T06:00:12;13.57;;;10.80;;
55601;SDS011;59921;51.332;12.410;2022-12-18T06:02:38;11.55;;;9.85;;
55601;SDS011;59921;51.332;12.410;2022-12-18T06:05:04;12.13;;;10.13;;
55601;SDS011;59921;51.332;12.410;2022-12-18T06:07:30;12.10;;;9.70;;
55601;SDS011;59921;51.332;12.410;2022-12-18T06:09:56;11.60;;;9.70;;
55601;SDS011;59921;51.332;12.410;2022-12-18T06:12:21;11.63;;;9.63;;
55601;SDS011;59921;51.332;12.410;2022-12-18T06:14:47;11.88;;;9.50;;
55601;SDS011;59921;51.332;12.410;2022-12-18T06:17:12;11.38;;;10.00;;
55601;SDS011;59921;51.332;12.410;2022-12-18T06:19:38;12.27;;;9.82;;
55601;SDS011;59921;51.332;12.410;2022-12-18T06:22:03;11.85;;;9.20;;
55601;SDS011;59921;51.332;12.410;2022-12-18T06:24:29;11.70;;;9.27;;
55601;SDS011;59921;51.332;12.410;2022-12-18T06:26:55;11.15;;;9.30;;
55601;SDS011;59921;51.332;12.410;2022-12-18T06:29:21;12.07;;;9.38;;
55601;SDS011;59921;51.332;12.410;2022-12-18T06:31:46;10.95;;;9.32;;
55601;SDS011;59921;51.332;12.410;2022-12-18T06:34:12;10.93;;;9.10;;
55601;SDS011;59921;51.332;12.410;2022-12-18T06:36:37;12.23;;;9.40;;
55601;SDS011;59921;51.332;12.410;2022-12-18T06:39:03;11.93;;;9.20;;
55601;SDS011;59921;51.332;12.410;2022-12-18T06:41:28;10.75;;;8.75;;
55601;SDS011;59921;51.332;12.410;2022-12-18T06:43:54;12.07;;;9.32;;
55601;SDS011;59921;51.332;12.410;2022-12-18T06:46:19;10.48;;;8.75;;
55601;SDS011;59921;51.332;12.410;2022-12-18T06:48:48;11.70;;;9.15;;
55601;SDS011;59921;51.332;12.410;2022-12-18T06:51:21;10.75;;;8.77;;
55601;SDS011;59921;51.332;12.410;2022-12-18T06:53:48;10.90;;;8.75;;
55601;SDS011;59921;51.332;12.410;2022-12-18T06:56:13;10.63;;;8.65;;
55601;SDS011;59921;51.332;12.410;2022-12-18T06:58:39;10.88;;;8.55;;
55601;SDS011;59921;51.332;12.410;2022-12-18T07:01:06;9.77;;;8.10;;
55601;SDS011;59921;51.332;12.410;2022-12-18T07:03:34;10.82;;;8.90;;
55601;SDS011;59921;51.332;12.410;2022-12-18T07:05:59;11.10;;;8.98;;
55601;SDS011;59921;51.332;12.410;2022-12-18T07:08:28;10.35;;;8.40;;
55601;SDS011;59921;51.332;12.410;2022-12-18T07:10:55;11.63;;;8.52;;
55601;SDS011;59921;51.332;12.410;2022-12-18T07:13:20;10.80;;;8.57;;
55601;SDS011;59921;51.332;12.410;2022-12-18T07:15:45;10.18;;;8.35;;
55601;SDS011;59921;51.332;12.410;2022-12-18T07:18:11;10.23;;;8.13;;
55601;SDS011;59921;51.332;12.410;2022-12-18T07:20:36;10.63;;;8.68;;
55601;SDS011;59921;51.332;12.410;2022-12-18T07:23:03;9.90;;;7.70;;
55601;SDS011;59921;51.332;12.410;2022-12-18T07:25:30;10.65;;;8.30;;
55601;SDS011;59921;51.332;12.410;2022-12-18T07:27:59;11.38;;;8.48;;
55601;SDS011;59921;51.332;12.410;2022-12-18T07:30:25;10.38;;;8.20;;
55601;SDS011;59921;51.332;12.410;2022-12-18T07:32:50;9.93;;;8.20;;
55601;SDS011;59921;51.332;12.410;2022-12-18T07:35:16;10.95;;;8.13;;
55601;SDS011;59921;51.332;12.410;2022-12-18T07:37:41;10.38;;;8.50;;
55601;SDS011;59921;51.332;12.410;2022-12-18T07:40:07;9.05;;;7.85;;
55601;SDS011;59921;51.332;12.410;2022-12-18T07:42:33;10.23;;;8.00;;
55601;SDS011;59921;51.332;12.410;2022-12-18T07:45:00;10.50;;;8.32;;
55601;SDS011;59921;51.332;12.410;2022-12-18T07:47:26;10.27;;;8.43;;
55601;SDS011;59921;51.332;12.410;2022-12-18T07:49:52;9.80;;;8.00;;
55601;SDS011;59921;51.332;12.410;2022-12-18T07:52:18;11.00;;;8.43;;
55601;SDS011;59921;51.332;12.410;2022-12-18T07:54:43;10.38;;;8.23;;
55601;SDS011;59921;51.332;12.410;2022-12-18T07:57:09;10.57;;;8.50;;
55601;SDS011;59921;51.332;12.410;2022-12-18T07:59:34;9.63;;;7.63;;
55601;SDS011;59921;51.332;12.410;2022-12-18T08:02:00;9.93;;;7.57;;
55601;SDS011;59921;51.332;12.410;2022-12-18T08:04:25;10.55;;;8.38;;
55601;SDS011;59921;51.332;12.410;2022-12-18T08:06:51;11.02;;;8.30;;
55601;SDS011;59921;51.332;12.410;2022-12-18T08:09:16;9.38;;;7.93;;
55601;SDS011;59921;51.332;12.410;2022-12-18T08:11:42;9.73;;;7.70;;
55601;SDS011;59921;51.332;12.410;2022-12-18T08:14:08;10.90;;;8.20;;
55601;SDS011;59921;51.332;12.410;2022-12-18T08:16:34;8.88;;;7.28;;
55601;SDS011;59921;51.332;12.410;2022-12-18T08:19:00;9.85;;;7.65;;
55601;SDS011;59921;51.332;12.410;2022-12-18T08:21:28;9.85;;;7.93;;
55601;SDS011;59921;51.332;12.410;2022-12-18T08:23:56;9.70;;;7.53;;
55601;SDS011;59921;51.332;12.410;2022-12-18T08:26:24;9.57;;;7.57;;
55601;SDS011;59921;51.332;12.410;2022-12-18T08:28:51;10.57;;;8.20;;
55601;SDS011;59921;51.332;12.410;2022-12-18T08:31:18;10.63;;;8.43;;
55601;SDS011;59921;51.332;12.410;2022-12-18T08:33:44;9.35;;;7.63;;
55601;SDS011;59921;51.332;12.410;2022-12-18T08:36:10;9.88;;;7.70;;
55601;SDS011;59921;51.332;12.410;2022-12-18T08:38:38;9.70;;;7.45;;
55601;SDS011;59921;51.332;12.410;2022-12-18T08:41:11;10.20;;;7.85;;
55601;SDS011;59921;51.332;12.410;2022-12-18T08:43:38;9.90;;;7.65;;
55601;SDS011;59921;51.332;12.410;2022-12-18T08:46:23;10.68;;;8.23;;
55601;SDS011;59921;51.332;12.410;2022-12-18T08:48:51;9.85;;;7.50;;
55601;SDS011;59921;51.332;12.410;2022-12-18T08:51:17;9.35;;;7.88;;
55601;SDS011;59921;51.332;12.410;2022-12-18T08:53:43;9.88;;;7.68;;
55601;SDS011;59921;51.332;12.410;2022-12-18T08:56:09;9.73;;;7.30;;
55601;SDS011;59921;51.332;12.410;2022-12-18T08:58:35;9.55;;;7.70;;
55601;SDS011;59921;51.332;12.410;2022-12-18T09:01:01;9.65;;;7.43;;
55601;SDS011;59921;51.332;12.410;2022-12-18T09:03:27;9.02;;;7.22;;
55601;SDS011;59921;51.332;12.410;2022-12-18T09:05:52;9.90;;;7.82;;
55601;SDS011;59921;51.332;12.410;2022-12-18T09:08:18;9.23;;;7.35;;
55601;SDS011;59921;51.332;12.410;2022-12-18T09:10:44;9.38;;;7.45;;
55601;SDS011;59921;51.332;12.410;2022-12-18T09:13:11;9.95;;;7.50;;
55601;SDS011;59921;51.332;12.410;2022-12-18T09:15:44;8.63;;;7.20;;
55601;SDS011;59921;51.332;12.410;2022-12-18T09:18:11;9.63;;;7.82;;
55601;SDS011;59921;51.332;12.410;2022-12-18T09:20:37;9.13;;;7.15;;
55601;SDS011;59921;51.332;12.410;2022-12-18T09:23:04;9.38;;;7.22;;
55601;SDS011;59921;51.332;12.410;2022-12-18T09:25:30;9.63;;;7.50;;
55601;SDS011;59921;51.332;12.410;2022-12-18T09:27:58;9.95;;;7.53;;
55601;SDS011;59921;51.332;12.410;2022-12-18T09:30:25;8.93;;;7.15;;
55601;SDS011;59921;51.332;12.410;2022-12-18T09:32:51;9.90;;;7.35;;
55601;SDS011;59921;51.332;12.410;2022-12-18T09:35:16;9.77;;;7.43;;
55601;SDS011;59921;51.332;12.410;2022-12-18T09:37:42;9.65;;;7.53;;
55601;SDS011;59921;51.332;12.410;2022-12-18T09:40:13;9.63;;;7.25;;
55601;SDS011;59921;51.332;12.410;2022-12-18T09:42:40;8.80;;;6.90;;
55601;SDS011;59921;51.332;12.410;2022-12-18T09:45:12;9.18;;;7.50;;
55601;SDS011;59921;51.332;12.410;2022-12-18T09:47:39;9.45;;;7.40;;
55601;SDS011;59921;51.332;12.410;2022-12-18T09:52:56;9.25;;;7.28;;
55601;SDS011;59921;51.332;12.410;2022-12-18T09:55:32;9.05;;;7.40;;
55601;SDS011;59921;51.332;12.410;2022-12-18T09:58:02;8.68;;;7.07;;
55601;SDS011;59921;51.332;12.410;2022-12-18T10:00:38;9.02;;;7.20;;
55601;SDS011;59921;51.332;12.410;2022-12-18T10:03:11;9.95;;;7.68;;
55601;SDS011;59921;51.332;12.410;2022-12-18T10:11:16;9.40;;;6.80;;
55601;SDS011;59921;51.332;12.410;2022-12-18T10:14:00;9.55;;;7.45;;
55601;SDS011;59921;51.332;12.410;2022-12-18T10:24:35;9.23;;;7.43;;
55601;SDS011;59921;51.332;12.410;2022-12-18T10:27:18;9.05;;;6.90;;
55601;SDS011;59921;51.332;12.410;2022-12-18T10:29:49;9.38;;;7.07;;
55601;SDS011;59921;51.332;12.410;2022-12-18T10:32:16;8.90;;;6.78;;
55601;SDS011;59921;51.332;12.410;2022-12-18T10:34:47;8.65;;;6.63;;
55601;SDS011;59921;51.332;12.410;2022-12-18T10:37:24;8.60;;;7.00;;
55601;SDS011;59921;51.332;12.410;2022-12-18T10:42:34;9.38;;;6.90;;
55601;SDS011;59921;51.332;12.410;2022-12-18T10:45:05;9.98;;;6.88;;
55601;SDS011;59921;51.332;12.410;2022-12-18T10:47:56;8.50;;;6.90;;
55601;SDS011;59921;51.332;12.410;2022-12-18T10:50:34;8.43;;;6.68;;
55601;SDS011;59921;51.332;12.410;2022-12-18T10:53:05;9.35;;;6.68;;
55601;SDS011;59921;51.332;12.410;2022-12-18T10:55:31;9.35;;;7.20;;
55601;SDS011;59921;51.332;12.410;2022-12-18T11:01:03;8.55;;;6.60;;
55601;SDS011;59921;51.332;12.410;2022-12-18T11:03:47;8.38;;;6.78;;
55601;SDS011;59921;51.332;12.410;2022-12-18T11:06:25;9.07;;;6.85;;
55601;SDS011;59921;51.332;12.410;2022-12-18T11:09:01;8.63;;;6.75;;
55601;SDS011;59921;51.332;12.410;2022-12-18T11:11:27;8.32;;;6.65;;
55601;SDS011;59921;51.332;12.410;2022-12-18T11:16:34;8.63;;;6.75;;
55601;SDS011;59921;51.332;12.410;2022-12-18T11:19:10;9.20;;;6.65;;
55601;SDS011;59921;51.332;12.410;2022-12-18T11:21:46;9.20;;;6.93;;
55601;SDS011;59921;51.332;12.410;2022-12-18T11:24:22;8.98;;;6.60;;
55601;SDS011;59921;51.332;12.410;2022-12-18T11:26:49;8.52;;;6.55;;
55601;SDS011;59921;51.332;12.410;2022-12-18T11:29:16;8.10;;;6.40;;
55601;SDS011;59921;51.332;12.410;2022-12-18T11:31:43;8.27;;;6.20;;
55601;SDS011;59921;51.332;12.410;2022-12-18T11:36:44;8.15;;;5.95;;
55601;SDS011;59921;51.332;12.410;2022-12-18T11:39:16;8.15;;;6.50;;
55601;SDS011;59921;51.332;12.410;2022-12-18T11:41:50;8.80;;;6.68;;
55601;SDS011;59921;51.332;12.410;2022-12-18T11:44:54;8.02;;;6.30;;
55601;SDS011;59921;51.332;12.410;2022-12-18T11:47:26;8.45;;;6.47;;
55601;SDS011;59921;51.332;12.410;2022-12-18T11:50:01;8.25;;;6.25;;
55601;SDS011;59921;51.332;12.410;2022-12-18T11:52:31;8.50;;;6.22;;
55601;SDS011;59921;51.332;12.410;2022-12-18T11:55:25;8.25;;;6.05;;
55601;SDS011;59921;51.332;12.410;2022-12-18T12:01:44;8.80;;;6.55;;
55601;SDS011;59921;51.332;12.410;2022-12-18T12:15:13;7.82;;;5.90;;
55601;SDS011;59921;51.332;12.410;2022-12-18T12:20:55;8.20;;;6.03;;
55601;SDS011;59921;51.332;12.410;2022-12-18T12:23:31;6.93;;;5.47;;
55601;SDS011;59921;51.332;12.410;2022-12-18T12:26:15;8.82;;;5.80;;
55601;SDS011;59921;51.332;12.410;2022-12-18T12:28:50;8.27;;;6.00;;
55601;SDS011;59921;51.332;12.410;2022-12-18T12:39:16;7.20;;;5.50;;
55601;SDS011;59921;51.332;12.410;2022-12-18T12:41:46;9.05;;;6.13;;
55601;SDS011;59921;51.332;12.410;2022-12-18T12:44:42;7.13;;;5.40;;
55601;SDS011;59921;51.332;12.410;2022-12-18T12:47:20;7.90;;;5.57;;
55601;SDS011;59921;51.332;12.410;2022-12-18T12:49:51;7.78;;;5.57;;
55601;SDS011;59921;51.332;12.410;2022-12-18T12:52:27;7.05;;;5.40;;
55601;SDS011;59921;51.332;12.410;2022-12-18T12:54:54;7.63;;;5.22;;
55601;SDS011;59921;51.332;12.410;2022-12-18T12:57:23;8.00;;;5.85;;
55601;SDS011;59921;51.332;12.410;2022-12-18T13:00:07;6.65;;;5.30;;
55601;SDS011;59921;51.332;12.410;2022-12-18T13:02:44;6.97;;;5.28;;
55601;SDS011;59921;51.332;12.410;2022-12-18T13:05:21;7.68;;;5.68;;
55601;SDS011;59921;51.332;12.410;2022-12-18T13:10:25;7.30;;;5.53;;
55601;SDS011;59921;51.332;12.410;2022-12-18T13:12:57;8.07;;;5.78;;
55601;SDS011;59921;51.332;12.410;2022-12-18T13:15:42;7.82;;;5.68;;
55601;SDS011;59921;51.332;12.410;2022-12-18T13:31:13;7.60;;;5.43;;
55601;SDS011;59921;51.332;12.410;2022-12-18T13:33:46;7.32;;;5.20;;
55601;SDS011;59921;51.332;12.410;2022-12-18T13:38:40;7.18;;;5.55;;
55601;SDS011;59921;51.332;12.410;2022-12-18T13:48:50;7.33;;;5.53;;
55601;SDS011;59921;51.332;12.410;2022-12-18T13:51:19;7.38;;;5.30;;
55601;SDS011;59921;51.332;12.410;2022-12-18T13:53:53;7.60;;;5.32;;
55601;SDS011;59921;51.332;12.410;2022-12-18T13:56:24;6.90;;;5.15;;
55601;SDS011;59921;51.332;12.410;2022-12-18T14:01:56;6.72;;;5.18;;
55601;SDS011;59921;51.332;12.410;2022-12-18T14:04:28;6.95;;;5.18;;
55601;SDS011;59921;51.332;12.410;2022-12-18T14:06:57;7.72;;;5.50;;
55601;SDS011;59921;51.332;12.410;2022-12-18T14:09:29;6.97;;;4.90;;
55601;SDS011;59921;51.332;12.410;2022-12-18T14:11:56;7.45;;;5.07;;
55601;SDS011;59921;51.332;12.410;2022-12-18T14:14:45;6.35;;;4.82;;
55601;SDS011;59921;51.332;12.410;2022-12-18T14:17:14;7.15;;;5.45;;
55601;SDS011;59921;51.332;12.410;2022-12-18T14:19:47;6.72;;;4.88;;
55601;SDS011;59921;51.332;12.410;2022-12-18T14:22:21;6.80;;;5.10;;
55601;SDS011;59921;51.332;12.410;2022-12-18T14:27:36;7.63;;;5.38;;
55601;SDS011;59921;51.332;12.410;2022-12-18T14:30:16;7.13;;;5.40;;
55601;SDS011;59921;51.332;12.410;2022-12-18T14:36:03;7.53;;;5.10;;
55601;SDS011;59921;51.332;12.410;2022-12-18T14:38:37;7.30;;;5.40;;
55601;SDS011;59921;51.332;12.410;2022-12-18T14:41:10;7.25;;;5.30;;
55601;SDS011;59921;51.332;12.410;2022-12-18T14:43:46;7.90;;;5.65;;
55601;SDS011;59921;51.332;12.410;2022-12-18T14:46:30;8.10;;;5.60;;
55601;SDS011;59921;51.332;12.410;2022-12-18T14:49:04;7.47;;;5.20;;
55601;SDS011;59921;51.332;12.410;2022-12-18T14:51:55;7.88;;;5.70;;
55601;SDS011;59921;51.332;12.410;2022-12-18T14:54:23;9.00;;;5.93;;
55601;SDS011;59921;51.332;12.410;2022-12-18T14:57:18;7.68;;;5.50;;
55601;SDS011;59921;51.332;12.410;2022-12-18T14:59:44;8.15;;;5.50;;
55601;SDS011;59921;51.332;12.410;2022-12-18T15:02:21;7.30;;;5.47;;
55601;SDS011;59921;51.332;12.410;2022-12-18T15:04:59;7.55;;;5.70;;
55601;SDS011;59921;51.332;12.410;2022-12-18T15:07:26;7.38;;;5.60;;
55601;SDS011;59921;51.332;12.410;2022-12-18T15:15:01;7.82;;;5.40;;
55601;SDS011;59921;51.332;12.410;2022-12-18T15:17:27;8.18;;;5.72;;
55601;SDS011;59921;51.332;12.410;2022-12-18T15:19:53;8.25;;;5.78;;
55601;SDS011;59921;51.332;12.410;2022-12-18T15:24:54;6.85;;;5.18;;
55601;SDS011;59921;51.332;12.410;2022-12-18T15:30:16;7.85;;;5.78;;
55601;SDS011;59921;51.332;12.410;2022-12-18T15:32:43;7.65;;;5.72;;
55601;SDS011;59921;51.332;12.410;2022-12-18T15:37:51;8.55;;;6.13;;
55601;SDS011;59921;51.332;12.410;2022-12-18T15:40:18;7.57;;;5.82;;
55601;SDS011;59921;51.332;12.410;2022-12-18T15:42:46;7.72;;;5.78;;
55601;SDS011;59921;51.332;12.410;2022-12-18T15:45:31;9.35;;;6.57;;
55601;SDS011;59921;51.332;12.410;2022-12-18T15:47:56;8.55;;;6.35;;
55601;SDS011;59921;51.332;12.410;2022-12-18T15:50:22;9.00;;;6.07;;
55601;SDS011;59921;51.332;12.410;2022-12-18T15:52:48;8.57;;;6.40;;
55601;SDS011;59921;51.332;12.410;2022-12-18T15:55:20;8.70;;;6.07;;
55601;SDS011;59921;51.332;12.410;2022-12-18T15:58:06;8.50;;;6.20;;
55601;SDS011;59921;51.332;12.410;2022-12-18T16:00:33;8.38;;;6.20;;
55601;SDS011;59921;51.332;12.410;2022-12-18T16:02:59;9.63;;;7.20;;
55601;SDS011;59921;51.332;12.410;2022-12-18T16:05:26;10.77;;;7.93;;
55601;SDS011;59921;51.332;12.410;2022-12-18T16:07:52;10.32;;;7.70;;
55601;SDS011;59921;51.332;12.410;2022-12-18T16:10:18;11.35;;;8.32;;
55601;SDS011;59921;51.332;12.410;2022-12-18T16:12:44;11.65;;;8.75;;
55601;SDS011;59921;51.332;12.410;2022-12-18T16:15:12;13.63;;;9.50;;
55601;SDS011;59921;51.332;12.410;2022-12-18T16:17:42;13.70;;;9.18;;
55601;SDS011;59921;51.332;12.410;2022-12-18T16:20:12;14.63;;;9.70;;
55601;SDS011;59921;51.332;12.410;2022-12-18T16:22:44;13.55;;;9.98;;
55601;SDS011;59921;51.332;12.410;2022-12-18T16:25:29;14.02;;;9.38;;
55601;SDS011;59921;51.332;12.410;2022-12-18T16:27:55;13.95;;;9.88;;
55601;SDS011;59921;51.332;12.410;2022-12-18T16:30:22;12.85;;;9.15;;
55601;SDS011;59921;51.332;12.410;2022-12-18T16:32:56;13.00;;;9.23;;
55601;SDS011;59921;51.332;12.410;2022-12-18T16:35:33;13.65;;;9.75;;
55601;SDS011;59921;51.332;12.410;2022-12-18T16:38:02;12.98;;;9.68;;
55601;SDS011;59921;51.332;12.410;2022-12-18T16:40:30;14.25;;;9.70;;
55601;SDS011;59921;51.332;12.410;2022-12-18T16:43:18;12.70;;;9.60;;
55601;SDS011;59921;51.332;12.410;2022-12-18T16:45:43;13.18;;;9.57;;
55601;SDS011;59921;51.332;12.410;2022-12-18T16:48:09;14.50;;;9.90;;
55601;SDS011;59921;51.332;12.410;2022-12-18T16:50:34;14.93;;;10.20;;
55601;SDS011;59921;51.332;12.410;2022-12-18T16:53:00;13.00;;;9.60;;
55601;SDS011;59921;51.332;12.410;2022-12-18T16:55:25;13.98;;;10.05;;